Time;durP1;ratioP1;P1;durP2;ratioP2;P2;SDS_P1;SDS_P2;PMS_P1;PMS_P2;Temp;Humidity;BMP_temperature;BMP_pressure;BME280_temperature;BME280_humidity;BME280_pressure;Samples;Min_cycle;Max_cycle;Signal;HPM_P1;HPM_P2
2023/09/14 00:00:52;;;;;;;0.10;0.10;;;16.40;99.90;;;;;;5010099;28;20034;-80
2023/09/14 00:03:18;;;;;;;0.00;0.00;;;16.50;99.90;;;;;;5010543;28;20025;-80
2023/09/14 00:05:47;;;;;;;0.00;0.00;;;16.40;99.90;;;;;;5010053;28;20459;-81
2023/09/14 00:08:14;;;;;;;0.03;0.03;;;16.40;99.90;;;;;;5010515;28;20037;-80
2023/09/14 00:10:40;;;;;;;0.00;0.00;;;16.40;99.90;;;;;;5010191;28;20083;-82
2023/09/14 00:13:07;;;;;;;0.00;0.00;;;16.10;99.90;;;;;;5010160;28;20029;-82
2023/09/14 00:15:33;;;;;;;0.00;0.00;;;16.30;99.90;;;;;;5010381;28;20038;-82
2023/09/14 00:17:59;;;;;;;0.00;0.00;;;16.50;99.90;;;;;;5008884;28;20398;-82
2023/09/14 00:20:27;;;;;;;0.00;0.00;;;16.50;99.90;;;;;;5010474;28;20510;-81
2023/09/14 00:22:56;;;;;;;0.00;0.00;;;16.50;99.90;;;;;;5010065;28;20018;-82
2023/09/14 00:25:23;;;;;;;0.00;0.00;;;16.50;99.90;;;;;;5010056;28;20018;-82
2023/09/14 00:27:50;;;;;;;0.00;0.00;;;16.60;99.90;;;;;;5010131;28;20022;-82
2023/09/14 00:30:17;;;;;;;0.00;0.00;;;16.60;99.90;;;;;;5009982;28;20066;-82
2023/09/14 00:32:43;;;;;;;0.00;0.00;;;16.60;99.90;;;;;;5010117;28;20474;-81
2023/09/14 00:35:10;;;;;;;0.03;0.03;;;16.50;99.90;;;;;;5009980;28;20037;-81
2023/09/14 00:37:37;;;;;;;0.00;0.00;;;16.50;99.90;;;;;;5009948;28;20105;-82
2023/09/14 00:40:07;;;;;;;0.10;0.10;;;16.20;99.90;;;;;;5008652;28;20033;-82
2023/09/14 00:42:44;;;;;;;0.10;0.10;;;16.10;99.90;;;;;;5010053;28;20019;-82
2023/09/14 00:45:14;;;;;;;0.10;0.10;;;16.00;99.90;;;;;;5010126;28;20132;-81
2023/09/14 00:47:49;;;;;;;0.30;0.30;;;15.90;99.90;;;;;;5008606;28;20375;-81
2023/09/14 00:50:17;;;;;;;0.10;0.10;;;15.80;99.90;;;;;;5010094;28;20041;-82
2023/09/14 00:53:02;;;;;;;0.00;0.00;;;15.60;99.90;;;;;;5008663;28;20442;-81
2023/09/14 00:55:29;;;;;;;0.00;0.00;;;15.80;99.90;;;;;;5008527;28;20177;-81
2023/09/14 00:57:58;;;;;;;0.00;0.00;;;15.80;99.90;;;;;;5008404;28;20029;-82
2023/09/14 01:00:25;;;;;;;0.00;0.00;;;16.00;99.90;;;;;;5008307;28;20029;-81
2023/09/14 01:02:52;;;;;;;0.00;0.00;;;15.90;99.90;;;;;;5009862;28;20355;-81
2023/09/14 01:05:18;;;;;;;0.10;0.10;;;15.70;99.90;;;;;;4992431;28;20038;-82
2023/09/14 01:07:44;;;;;;;0.00;0.00;;;15.80;99.90;;;;;;5007697;28;20026;-82
2023/09/14 01:10:10;;;;;;;0.10;0.10;;;15.90;99.90;;;;;;5009453;28;20022;-80
2023/09/14 01:12:37;;;;;;;0.00;0.00;;;15.70;99.90;;;;;;5009336;28;20040;-81
2023/09/14 01:15:22;;;;;;;0.10;0.10;;;15.60;99.90;;;;;;5008680;28;20435;-81
2023/09/14 01:18:19;;;;;;;0.05;0.05;;;15.60;99.90;;;;;;5006856;28;20026;-80
2023/09/14 01:21:08;;;;;;;0.00;0.00;;;15.70;99.90;;;;;;5012142;28;20688;-79
2023/09/14 01:23:34;;;;;;;0.00;0.00;;;15.70;99.90;;;;;;5010630;28;20105;-80
2023/09/14 01:26:01;;;;;;;0.00;0.00;;;15.70;99.90;;;;;;5012866;28;20026;-81
2023/09/14 01:28:28;;;;;;;0.00;0.00;;;15.90;99.90;;;;;;4995256;28;20053;-81
2023/09/14 01:30:54;;;;;;;0.10;0.10;;;16.00;99.90;;;;;;5012777;28;20075;-80
2023/09/14 01:33:24;;;;;;;0.13;0.13;;;15.90;99.90;;;;;;5012585;28;20037;-81
2023/09/14 01:35:53;;;;;;;0.63;0.63;;;15.40;99.90;;;;;;5011385;28;20030;-82
2023/09/14 01:38:20;;;;;;;0.10;0.10;;;15.40;99.90;;;;;;5011001;28;20026;-81
2023/09/14 01:40:48;;;;;;;0.08;0.08;;;15.30;99.90;;;;;;5012776;28;20037;-81
2023/09/14 01:43:15;;;;;;;0.00;0.00;;;15.50;99.90;;;;;;5012382;28;20520;-81
2023/09/14 01:45:42;;;;;;;0.10;0.10;;;15.60;99.90;;;;;;5011488;28;20468;-82
2023/09/14 01:48:13;;;;;;;0.00;0.00;;;15.60;99.90;;;;;;5012510;28;20075;-81
2023/09/14 01:50:39;;;;;;;0.20;0.20;;;15.50;99.90;;;;;;5012540;28;20064;-80
2023/09/14 01:53:05;;;;;;;0.00;0.00;;;15.60;99.90;;;;;;5010870;28;20030;-82
2023/09/14 01:55:31;;;;;;;0.10;0.10;;;15.40;99.90;;;;;;5010971;28;20038;-80
2023/09/14 01:57:57;;;;;;;0.00;0.00;;;15.30;99.90;;;;;;5011140;28;20069;-81
2023/09/14 02:00:25;;;;;;;0.08;0.08;;;15.20;99.90;;;;;;5010994;28;20033;-80
2023/09/14 02:02:52;;;;;;;0.20;0.20;;;15.10;99.90;;;;;;5010887;28;20026;-82
2023/09/14 02:05:19;;;;;;;0.00;0.00;;;15.30;99.90;;;;;;5012110;28;20048;-82
2023/09/14 02:07:45;;;;;;;0.10;0.10;;;15.30;99.90;;;;;;5011152;28;20063;-82
2023/09/14 02:10:12;;;;;;;0.00;0.00;;;15.40;99.90;;;;;;5012207;28;20428;-82
2023/09/14 02:12:38;;;;;;;0.10;0.10;;;15.50;99.90;;;;;;5011986;28;20022;-82
2023/09/14 02:15:04;;;;;;;0.10;0.10;;;15.60;99.90;;;;;;5012092;28;20087;-81
2023/09/14 02:17:30;;;;;;;0.00;0.00;;;15.60;99.90;;;;;;5010818;28;20463;-80
2023/09/14 02:19:58;;;;;;;0.10;0.10;;;15.50;99.90;;;;;;5010524;28;20439;-81
2023/09/14 02:22:24;;;;;;;0.00;0.00;;;15.40;99.90;;;;;;5010971;28;20036;-79
2023/09/14 02:24:49;;;;;;;0.10;0.10;;;15.40;99.90;;;;;;5010405;28;20095;-82
2023/09/14 02:27:16;;;;;;;0.00;0.00;;;15.10;99.90;;;;;;5012057;28;20022;-80
2023/09/14 02:29:41;;;;;;;0.10;0.10;;;15.20;99.90;;;;;;5010452;28;20070;-80
2023/09/14 02:32:08;;;;;;;0.10;0.10;;;15.30;99.90;;;;;;5010666;28;20025;-81
2023/09/14 02:34:34;;;;;;;0.00;0.00;;;15.30;99.90;;;;;;5011372;28;20466;-82
2023/09/14 02:37:02;;;;;;;0.00;0.00;;;15.40;99.90;;;;;;5011783;28;20025;-81
2023/09/14 02:39:28;;;;;;;0.00;0.00;;;15.60;99.90;;;;;;4994456;28;20033;-81
2023/09/14 02:41:54;;;;;;;0.38;0.38;;;15.70;99.90;;;;;;5010481;28;20022;-81
2023/09/14 02:44:20;;;;;;;0.03;0.03;;;15.30;99.90;;;;;;5010461;28;20046;-81
2023/09/14 02:46:46;;;;;;;0.00;0.00;;;15.30;99.90;;;;;;5010362;28;20029;-80
2023/09/14 02:49:12;;;;;;;0.00;0.00;;;15.20;99.90;;;;;;5011346;28;20014;-81
2023/09/14 02:51:38;;;;;;;1.20;1.20;;;15.40;99.90;;;;;;5010197;28;20126;-81
2023/09/14 02:54:04;;;;;;;0.00;0.00;;;15.40;99.90;;;;;;5010359;28;20025;-81
2023/09/14 02:56:30;;;;;;;0.10;0.10;;;15.30;99.90;;;;;;5012298;28;20041;-79
2023/09/14 02:58:56;;;;;;;0.00;0.00;;;15.40;99.90;;;;;;4994084;28;20395;-81
2023/09/14 03:01:22;;;;;;;0.10;0.10;;;15.30;99.90;;;;;;5009991;28;20034;-82
2023/09/14 03:03:48;;;;;;;0.05;0.05;;;15.20;99.90;;;;;;5009868;28;20026;-79
2023/09/14 03:06:14;;;;;;;0.00;0.00;;;15.10;99.90;;;;;;5010027;28;20037;-81
2023/09/14 03:08:40;;;;;;;0.00;0.00;;;15.10;99.90;;;;;;5010086;28;20112;-80
2023/09/14 03:11:06;;;;;;;0.00;0.00;;;15.00;99.90;;;;;;5009883;28;20076;-81
2023/09/14 03:13:32;;;;;;;0.00;0.00;;;14.90;99.90;;;;;;5009815;28;20471;-80
2023/09/14 03:15:59;;;;;;;0.15;0.15;;;15.00;99.90;;;;;;5009514;28;20029;-79
2023/09/14 03:18:26;;;;;;;0.10;0.10;;;15.00;99.90;;;;;;5009735;28;20121;-80
2023/09/14 03:20:53;;;;;;;0.00;0.00;;;15.00;99.90;;;;;;5011052;28;20449;-81
2023/09/14 03:23:20;;;;;;;0.10;0.10;;;15.10;99.90;;;;;;5009958;28;20042;-81
2023/09/14 03:25:48;;;;;;;0.17;0.17;;;15.20;99.90;;;;;;5009654;28;20022;-81
2023/09/14 03:28:17;;;;;;;0.10;0.10;;;15.10;99.90;;;;;;4993551;28;20026;-80
2023/09/14 03:30:44;;;;;;;0.13;0.13;;;15.00;99.90;;;;;;5009811;28;20022;-79
2023/09/14 03:33:11;;;;;;;0.05;0.05;;;15.00;99.90;;;;;;5009389;28;20036;-82
2023/09/14 03:35:37;;;;;;;0.00;0.00;;;15.00;99.90;;;;;;5010688;28;20041;-80
2023/09/14 03:38:03;;;;;;;0.05;0.05;;;15.30;99.90;;;;;;5009985;28;20061;-81
2023/09/14 03:40:30;;;;;;;0.00;0.00;;;15.30;99.90;;;;;;5009441;28;20041;-80
2023/09/14 03:42:56;;;;;;;0.00;0.00;;;15.40;99.90;;;;;;5009532;28;20458;-82
2023/09/14 03:45:21;;;;;;;0.00;0.00;;;15.30;99.90;;;;;;5010672;28;20056;-82
2023/09/14 03:47:50;;;;;;;0.10;0.10;;;15.40;99.90;;;;;;5010528;28;20022;-80
2023/09/14 03:50:16;;;;;;;0.10;0.10;;;15.20;99.90;;;;;;5009013;28;20195;-81
2023/09/14 03:52:42;;;;;;;0.10;0.10;;;15.10;99.90;;;;;;5010768;28;20118;-80
2023/09/14 03:55:08;;;;;;;0.03;0.03;;;15.10;99.90;;;;;;5010467;28;20050;-81
2023/09/14 03:57:35;;;;;;;0.00;0.00;;;15.10;99.90;;;;;;5009305;28;20033;-80
2023/09/14 04:00:09;;;;;;;0.10;0.10;;;15.00;99.90;;;;;;5008984;28;20485;-79
2023/09/14 04:02:39;;;;;;;0.20;0.20;;;15.00;99.90;;;;;;5010027;28;20490;-80
2023/09/14 04:05:17;;;;;;;0.00;0.00;;;14.90;99.90;;;;;;5008833;28;20129;-80
2023/09/14 04:07:46;;;;;;;0.10;0.10;;;14.90;99.90;;;;;;5009097;28;20113;-81
2023/09/14 04:10:12;;;;;;;0.10;0.10;;;15.00;99.90;;;;;;5008834;28;20061;-81
2023/09/14 04:12:40;;;;;;;0.00;0.00;;;14.90;99.90;;;;;;5010369;28;20446;-81
2023/09/14 04:15:07;;;;;;;0.10;0.10;;;14.90;99.90;;;;;;5009044;28;20034;-81
2023/09/14 04:17:33;;;;;;;0.00;0.00;;;14.90;99.90;;;;;;5009780;28;20038;-81
2023/09/14 04:20:10;;;;;;;0.10;0.10;;;15.00;99.90;;;;;;5009072;28;20018;-81
2023/09/14 04:22:39;;;;;;;0.00;0.00;;;15.00;99.90;;;;;;5008850;28;20126;-80
2023/09/14 04:25:06;;;;;;;0.00;0.00;;;15.00;99.90;;;;;;5008775;28;20022;-79
2023/09/14 04:27:33;;;;;;;0.00;0.00;;;14.90;99.90;;;;;;5009022;28;20127;-80
2023/09/14 04:29:59;;;;;;;0.70;0.70;;;14.90;99.90;;;;;;5008934;28;20054;-80
2023/09/14 04:32:25;;;;;;;0.10;0.10;;;14.80;99.90;;;;;;5008509;28;20068;-80
2023/09/14 04:34:51;;;;;;;0.05;0.05;;;14.80;99.90;;;;;;5008755;28;20420;-82
2023/09/14 04:37:17;;;;;;;0.00;0.00;;;14.60;99.90;;;;;;5008592;28;20505;-81
2023/09/14 04:39:45;;;;;;;0.08;0.08;;;14.40;99.90;;;;;;5008714;28;20073;-80
2023/09/14 04:42:12;;;;;;;0.00;0.00;;;14.50;99.90;;;;;;4992393;28;20028;-80
2023/09/14 04:44:38;;;;;;;0.00;0.00;;;14.50;99.90;;;;;;4992444;28;20079;-80
2023/09/14 04:47:05;;;;;;;0.10;0.10;;;14.60;99.90;;;;;;5008413;28;20492;-80
2023/09/14 04:49:30;;;;;;;0.30;0.30;;;14.60;99.90;;;;;;4994534;28;20117;-80
2023/09/14 04:51:56;;;;;;;0.00;0.00;;;14.40;99.90;;;;;;5012120;28;20155;-80
2023/09/14 04:54:22;;;;;;;0.00;0.00;;;14.50;99.90;;;;;;5012257;28;20029;-80
2023/09/14 04:56:48;;;;;;;0.68;0.68;;;14.60;99.90;;;;;;5011820;28;20543;-80
2023/09/14 04:59:13;;;;;;;0.00;0.00;;;14.70;99.90;;;;;;5013294;28;20025;-80
2023/09/14 05:01:39;;;;;;;0.00;0.00;;;14.70;99.90;;;;;;5008957;28;20399;-79
2023/09/14 05:04:05;;;;;;;0.08;0.08;;;14.70;99.90;;;;;;5004754;28;20045;-79
2023/09/14 05:06:31;;;;;;;1.65;1.55;;;14.80;99.90;;;;;;5010290;28;20470;-79
2023/09/14 05:08:58;;;;;;;0.00;0.00;;;14.90;99.90;;;;;;5011571;28;20029;-80
2023/09/14 05:11:24;;;;;;;0.00;0.00;;;14.90;99.90;;;;;;5011009;28;20101;-80
2023/09/14 05:13:50;;;;;;;0.10;0.10;;;15.00;99.90;;;;;;5041612;28;20045;-79
2023/09/14 05:16:16;;;;;;;0.10;0.10;;;14.80;99.90;;;;;;5012054;28;20033;-82
2023/09/14 05:18:42;;;;;;;0.10;0.10;;;14.80;99.90;;;;;;5021430;28;20057;-80
2023/09/14 05:21:08;;;;;;;0.00;0.00;;;14.60;99.90;;;;;;5081852;28;20056;-81
2023/09/14 05:23:34;;;;;;;0.10;0.10;;;14.40;99.90;;;;;;5085321;28;20085;-83
2023/09/14 05:26:00;;;;;;;0.10;0.10;;;14.40;99.90;;;;;;5067600;28;20467;-81
2023/09/14 05:28:26;;;;;;;0.00;0.00;;;14.50;99.90;;;;;;5028421;28;20058;-81
2023/09/14 05:30:52;;;;;;;0.00;0.00;;;14.50;99.90;;;;;;5016903;28;20363;-81
2023/09/14 05:33:18;;;;;;;0.10;0.10;;;14.50;99.90;;;;;;5061300;28;20022;-81
2023/09/14 05:35:44;;;;;;;0.00;0.00;;;14.60;99.90;;;;;;5039656;28;20035;-81
2023/09/14 05:38:10;;;;;;;1.08;1.08;;;14.70;99.90;;;;;;5013831;28;20101;-81
2023/09/14 05:40:36;;;;;;;0.00;0.00;;;14.70;99.90;;;;;;5024493;28;20072;-81
2023/09/14 05:43:02;;;;;;;0.03;0.03;;;14.70;99.90;;;;;;5011515;28;20403;-82
2023/09/14 05:45:28;;;;;;;0.10;0.10;;;14.80;99.90;;;;;;5041059;28;20030;-79
2023/09/14 05:47:55;;;;;;;0.00;0.00;;;14.80;99.90;;;;;;5041176;28;20049;-82
2023/09/14 05:50:22;;;;;;;0.10;0.10;;;14.90;99.90;;;;;;5033115;28;20482;-82
2023/09/14 05:52:47;;;;;;;0.00;0.00;;;15.00;99.90;;;;;;5027138;28;20029;-80
2023/09/14 05:55:14;;;;;;;0.00;0.00;;;15.00;99.90;;;;;;5022761;28;20065;-80
2023/09/14 05:57:40;;;;;;;0.10;0.10;;;15.10;99.90;;;;;;5085008;28;20054;-81
2023/09/14 06:00:13;;;;;;;0.00;0.00;;;15.20;99.90;;;;;;5061511;28;20467;-80
2023/09/14 06:02:41;;;;;;;0.10;0.10;;;15.10;99.90;;;;;;5035730;28;20393;-80
2023/09/14 06:05:09;;;;;;;0.10;0.10;;;15.20;99.90;;;;;;5003830;28;20054;-80
2023/09/14 06:07:35;;;;;;;0.10;0.10;;;15.20;99.90;;;;;;5028953;28;20106;-80
2023/09/14 06:10:02;;;;;;;0.00;0.00;;;15.30;99.90;;;;;;5082020;27;20066;-81
2023/09/14 06:12:29;;;;;;;0.00;0.00;;;15.40;99.90;;;;;;5022893;27;20081;-81
2023/09/14 06:14:56;;;;;;;0.00;0.00;;;15.60;99.90;;;;;;5025828;28;20033;-81
2023/09/14 06:17:22;;;;;;;0.10;0.10;;;15.60;99.90;;;;;;5022006;28;20045;-80
2023/09/14 06:19:48;;;;;;;0.00;0.00;;;15.60;99.90;;;;;;5049956;28;20026;-80
2023/09/14 06:22:14;;;;;;;0.10;0.10;;;15.80;99.90;;;;;;5097381;28;20020;-79
2023/09/14 06:24:39;;;;;;;0.10;0.10;;;15.90;99.90;;;;;;5063916;28;20113;-80
2023/09/14 06:27:05;;;;;;;0.00;0.00;;;15.90;99.90;;;;;;5042132;28;20034;-80
2023/09/14 06:29:31;;;;;;;0.10;0.10;;;15.90;99.90;;;;;;5033890;28;20380;-80
2023/09/14 06:31:57;;;;;;;0.10;0.10;;;15.90;99.90;;;;;;5041246;28;20019;-80
2023/09/14 06:34:22;;;;;;;0.00;0.00;;;16.00;99.90;;;;;;5049681;28;20059;-81
2023/09/14 06:36:48;;;;;;;0.10;0.10;;;16.10;99.90;;;;;;5038825;28;20482;-80
2023/09/14 06:39:14;;;;;;;3.83;2.70;;;16.20;99.90;;;;;;5027237;28;20014;-80
2023/09/14 06:41:40;;;;;;;0.00;0.00;;;16.40;99.90;;;;;;5008412;28;20496;-82
2023/09/14 06:44:06;;;;;;;0.00;0.00;;;16.50;99.90;;;;;;5051644;28;20507;-81
2023/09/14 06:46:32;;;;;;;0.00;0.00;;;16.70;99.90;;;;;;5031611;28;20045;-82
2023/09/14 06:48:58;;;;;;;0.73;0.73;;;16.80;99.90;;;;;;5034351;28;20113;-82
2023/09/14 06:51:23;;;;;;;0.70;0.43;;;16.60;99.90;;;;;;5028259;28;20026;-82
2023/09/14 06:53:51;;;;;;;0.10;0.10;;;16.70;99.90;;;;;;5048592;28;20480;-82
2023/09/14 06:56:17;;;;;;;0.85;0.85;;;16.80;99.90;;;;;;5082708;28;20107;-82
2023/09/14 06:58:43;;;;;;;0.00;0.00;;;16.80;99.90;;;;;;5043012;28;20022;-83
2023/09/14 07:01:08;;;;;;;0.52;0.52;;;16.80;99.90;;;;;;5030167;28;20034;-82
2023/09/14 07:03:35;;;;;;;0.65;0.60;;;16.80;99.90;;;;;;5022718;28;20024;-82
2023/09/14 07:06:02;;;;;;;0.52;0.52;;;16.70;99.90;;;;;;5047401;28;20027;-82
2023/09/14 07:08:28;;;;;;;0.00;0.00;;;16.80;99.90;;;;;;5067040;28;20033;-82
2023/09/14 07:10:54;;;;;;;0.10;0.10;;;16.60;99.90;;;;;;5037507;28;20030;-82
2023/09/14 07:13:21;;;;;;;2.63;0.85;;;16.70;99.90;;;;;;5023486;28;20022;-81
2023/09/14 07:15:47;;;;;;;0.00;0.00;;;16.90;99.90;;;;;;5011612;28;20030;-82
2023/09/14 07:18:30;;;;;;;0.43;0.43;;;16.90;99.90;;;;;;5020032;28;20513;-82
2023/09/14 07:20:57;;;;;;;0.40;0.40;;;17.10;99.90;;;;;;5079287;28;20106;-82
2023/09/14 07:23:25;;;;;;;0.32;0.32;;;17.20;99.90;;;;;;5010733;28;20022;-80
2023/09/14 07:25:50;;;;;;;0.32;0.32;;;17.30;99.90;;;;;;4999702;28;20042;-82
2023/09/14 07:28:20;;;;;;;4.75;2.28;;;17.30;99.90;;;;;;5009792;28;20026;-83
2023/09/14 07:30:47;;;;;;;0.63;0.63;;;17.10;99.90;;;;;;5010479;28;20037;-83
2023/09/14 07:33:14;;;;;;;0.70;0.63;;;17.20;99.90;;;;;;5005416;28;20030;-82
2023/09/14 07:35:40;;;;;;;0.00;0.00;;;17.20;99.90;;;;;;5001597;28;20041;-82
2023/09/14 07:38:12;;;;;;;0.00;0.00;;;17.40;99.90;;;;;;5010691;28;20410;-82
2023/09/14 07:40:38;;;;;;;0.05;0.05;;;17.70;99.90;;;;;;5000991;28;20030;-82
2023/09/14 07:43:04;;;;;;;0.15;0.15;;;17.70;99.90;;;;;;5006434;28;20022;-83
2023/09/14 07:45:33;;;;;;;1.02;1.02;;;17.90;99.90;;;;;;5010654;28;20030;-83
2023/09/14 07:48:04;;;;;;;0.00;0.00;;;18.10;99.90;;;;;;4996972;28;20014;-83
2023/09/14 07:50:33;;;;;;;1.25;1.15;;;18.30;99.90;;;;;;5010307;28;20492;-83
2023/09/14 07:52:59;;;;;;;0.05;0.05;;;18.40;99.90;;;;;;4997488;28;20113;-82
2023/09/14 07:55:25;;;;;;;0.52;0.52;;;18.40;99.90;;;;;;5009398;28;20113;-79
2023/09/14 07:57:50;;;;;;;3.10;2.35;;;18.30;99.90;;;;;;5010656;28;20050;-82
2023/09/14 08:00:16;;;;;;;0.20;0.20;;;18.40;99.90;;;;;;5007086;28;20109;-82
2023/09/14 08:02:42;;;;;;;8.20;1.48;;;18.40;99.90;;;;;;5019349;28;20038;-82
2023/09/14 08:05:08;;;;;;;0.30;0.30;;;18.50;99.90;;;;;;5010320;28;20422;-83
2023/09/14 08:07:34;;;;;;;1.90;1.65;;;18.60;99.90;;;;;;5010145;28;20086;-82
2023/09/14 08:10:00;;;;;;;0.00;0.00;;;18.50;99.90;;;;;;5010332;28;20494;-83
2023/09/14 08:12:26;;;;;;;0.00;0.00;;;18.60;99.90;;;;;;5010348;28;20034;-81
2023/09/14 08:14:52;;;;;;;0.00;0.00;;;18.80;99.90;;;;;;5010430;28;20030;-83
2023/09/14 08:17:17;;;;;;;0.00;0.00;;;18.90;99.90;;;;;;5010144;28;20033;-83
2023/09/14 08:19:43;;;;;;;0.00;0.00;;;19.10;99.90;;;;;;5010233;28;20017;-80
2023/09/14 08:22:10;;;;;;;0.55;0.55;;;19.30;99.90;;;;;;5009730;28;20040;-80
2023/09/14 08:24:36;;;;;;;0.00;0.00;;;19.40;99.90;;;;;;5010106;28;20051;-81
2023/09/14 08:27:01;;;;;;;0.00;0.00;;;19.60;99.90;;;;;;5010252;28;20113;-82
2023/09/14 08:29:27;;;;;;;0.63;0.63;;;19.50;99.90;;;;;;5009986;28;20014;-83
2023/09/14 08:31:53;;;;;;;0.00;0.00;;;19.50;99.90;;;;;;5010310;28;20482;-83
2023/09/14 08:34:19;;;;;;;0.20;0.20;;;19.60;99.90;;;;;;5010097;28;20382;-82
2023/09/14 08:36:45;;;;;;;0.00;0.00;;;19.70;99.90;;;;;;5008678;28;20049;-82
2023/09/14 08:39:10;;;;;;;0.52;0.52;;;19.90;99.90;;;;;;5009841;28;20475;-83
2023/09/14 08:41:38;;;;;;;0.30;0.30;;;19.90;99.90;;;;;;5009717;28;20034;-81
2023/09/14 08:44:07;;;;;;;0.63;0.63;;;19.50;99.90;;;;;;5010134;28;20527;-83
2023/09/14 08:46:34;;;;;;;0.70;0.43;;;19.50;99.90;;;;;;5009718;28;20037;-83
2023/09/14 08:49:03;;;;;;;0.00;0.00;;;19.50;99.90;;;;;;5010197;28;20490;-82
2023/09/14 08:51:33;;;;;;;1.42;0.68;;;19.60;99.90;;;;;;5009210;28;20038;-83
2023/09/14 08:53:59;;;;;;;1.90;1.15;;;19.80;99.90;;;;;;5008672;28;20378;-83
2023/09/14 08:56:26;;;;;;;0.10;0.10;;;19.60;99.90;;;;;;5008925;28;20478;-83
2023/09/14 08:58:54;;;;;;;0.00;0.00;;;19.40;99.90;;;;;;5009579;28;20053;-81
2023/09/14 09:01:20;;;;;;;0.32;0.32;;;19.50;99.90;;;;;;5009673;28;20042;-83
2023/09/14 09:03:45;;;;;;;1.90;0.65;;;19.60;99.90;;;;;;5008430;28;20038;-83
2023/09/14 09:06:11;;;;;;;0.40;0.40;;;20.00;99.90;;;;;;5008216;28;20408;-83
2023/09/14 09:08:38;;;;;;;1.02;0.45;;;20.30;99.90;;;;;;5009620;28;20138;-83
2023/09/14 09:11:04;;;;;;;0.32;0.32;;;20.60;99.90;;;;;;5009706;28;20478;-83
2023/09/14 09:13:43;;;;;;;0.63;0.63;;;20.10;99.90;;;;;;5009355;28;20029;-81
2023/09/14 09:16:11;;;;;;;0.32;0.28;;;20.20;99.90;;;;;;5009600;28;20049;-82
2023/09/14 09:19:06;;;;;;;2.28;0.57;;;20.00;99.90;;;;;;5009690;28;20030;-83
2023/09/14 09:21:34;;;;;;;0.10;0.10;;;19.70;99.90;;;;;;5009498;28;20034;-82
2023/09/14 09:24:03;;;;;;;0.00;0.00;;;20.10;99.90;;;;;;5009527;28;20022;-82
2023/09/14 09:26:36;;;;;;;0.20;0.20;;;20.10;99.90;;;;;;5009605;28;20029;-82
2023/09/14 09:29:19;;;;;;;2.00;0.52;;;19.70;99.90;;;;;;5009305;28;20045;-83
2023/09/14 09:31:47;;;;;;;1.02;0.65;;;20.20;99.90;;;;;;4996359;28;20180;-82
2023/09/14 09:34:14;;;;;;;1.15;0.70;;;20.60;99.90;;;;;;5008380;28;20493;-82
2023/09/14 09:36:40;;;;;;;2.00;0.50;;;20.50;99.90;;;;;;5012625;28;20030;-82
2023/09/14 09:39:11;;;;;;;0.00;0.00;;;20.50;99.90;;;;;;5012766;28;20037;-82
2023/09/14 09:41:37;;;;;;;0.00;0.00;;;20.50;99.90;;;;;;5012720;28;20030;-82
2023/09/14 09:44:09;;;;;;;4.38;1.17;;;21.10;99.90;;;;;;5011634;28;20470;-82
2023/09/14 09:46:36;;;;;;;0.00;0.00;;;21.30;99.90;;;;;;5012772;28;20026;-80
2023/09/14 09:49:18;;;;;;;0.10;0.10;;;21.60;99.90;;;;;;5012928;28;20162;-83
2023/09/14 09:51:49;;;;;;;0.00;0.00;;;21.80;99.90;;;;;;5012523;28;20026;-82
2023/09/14 09:54:19;;;;;;;0.00;0.00;;;21.80;99.90;;;;;;5013159;28;20036;-82
2023/09/14 09:56:45;;;;;;;0.10;0.10;;;21.70;99.90;;;;;;5012465;28;20474;-83
2023/09/14 09:59:14;;;;;;;0.70;0.40;;;22.00;99.90;;;;;;5012391;28;20029;-83
2023/09/14 10:01:41;;;;;;;0.00;0.00;;;22.50;99.90;;;;;;5012480;28;20033;-83
2023/09/14 10:04:08;;;;;;;0.20;0.20;;;22.90;99.90;;;;;;5010488;28;20030;-82
2023/09/14 10:06:35;;;;;;;0.10;0.10;;;22.90;99.90;;;;;;5012540;28;20018;-82
2023/09/14 10:09:06;;;;;;;1.38;0.52;;;22.10;99.90;;;;;;5012089;28;20034;-83
2023/09/14 10:11:32;;;;;;;0.20;0.20;;;22.00;99.90;;;;;;5012690;28;20063;-83
2023/09/14 10:14:02;;;;;;;0.00;0.00;;;22.50;99.90;;;;;;5010908;28;20289;-82
2023/09/14 10:16:34;;;;;;;0.75;0.38;;;23.40;99.90;;;;;;5012425;28;20121;-83
2023/09/14 10:19:02;;;;;;;0.00;0.00;;;23.30;99.90;;;;;;5005770;28;20892;-83
2023/09/14 10:21:30;;;;;;;0.00;0.00;;;23.50;99.90;;;;;;5012373;28;20022;-83
2023/09/14 10:23:56;;;;;;;0.00;0.00;;;23.70;99.90;;;;;;5012114;28;20026;-83
2023/09/14 10:26:22;;;;;;;0.28;0.22;;;23.90;99.90;;;;;;5012110;28;20026;-81
2023/09/14 10:28:49;;;;;;;0.00;0.00;;;23.70;99.90;;;;;;5005756;28;20030;-83
2023/09/14 10:31:17;;;;;;;0.00;0.00;;;23.20;99.90;;;;;;5007091;28;20069;-83
2023/09/14 10:33:48;;;;;;;0.73;0.70;;;23.60;99.90;;;;;;5010407;28;20471;-83
2023/09/14 10:36:15;;;;;;;0.00;0.00;;;23.00;99.90;;;;;;5011891;28;20038;-82
2023/09/14 10:38:45;;;;;;;0.00;0.00;;;23.50;99.90;;;;;;5010700;28;20022;-89
2023/09/14 10:41:14;;;;;;;0.00;0.00;;;23.90;99.90;;;;;;5012251;28;20042;-88
2023/09/14 10:43:41;;;;;;;0.80;0.28;;;24.20;99.90;;;;;;4998886;28;20034;-86
2023/09/14 10:46:14;;;;;;;0.00;0.00;;;24.10;99.90;;;;;;5010738;28;20036;-87
2023/09/14 10:48:40;;;;;;;0.30;0.30;;;24.70;99.90;;;;;;5010554;28;20096;-89
2023/09/14 10:51:09;;;;;;;0.15;0.15;;;24.80;99.90;;;;;;5011854;28;20030;-86
2023/09/14 10:53:35;;;;;;;0.08;0.08;;;24.30;99.90;;;;;;5011847;28;20527;-86
2023/09/14 10:56:02;;;;;;;3.22;1.00;;;24.00;99.90;;;;;;5011600;28;20128;-87
2023/09/14 10:58:42;;;;;;;1.33;1.25;;;23.90;99.90;;;;;;5011728;28;20449;-87
2023/09/14 11:01:11;;;;;;;0.10;0.10;;;24.00;99.90;;;;;;5003940;28;20060;-86
2023/09/14 11:04:06;;;;;;;0.00;0.00;;;24.10;99.20;;;;;;4994408;28;20041;-79
2023/09/14 11:06:44;;;;;;;0.10;0.10;;;24.50;99.90;;;;;;4992338;28;20031;-85
2023/09/14 11:09:13;;;;;;;0.30;0.30;;;24.70;99.70;;;;;;5004553;28;20018;-79
2023/09/14 11:11:41;;;;;;;0.25;0.25;;;24.50;99.90;;;;;;5001439;28;20018;-86
2023/09/14 11:14:15;;;;;;;1.00;0.43;;;24.60;99.90;;;;;;5011064;28;20470;-85
2023/09/14 11:16:44;;;;;;;4.82;0.82;;;24.80;99.90;;;;;;5010908;28;20482;-85
2023/09/14 11:19:10;;;;;;;0.00;0.00;;;24.70;99.90;;;;;;5011311;28;20033;-85
2023/09/14 11:21:36;;;;;;;0.00;0.00;;;24.40;99.90;;;;;;5011153;28;20034;-85
2023/09/14 11:24:03;;;;;;;0.40;0.40;;;24.50;99.90;;;;;;5011276;28;20034;-85
2023/09/14 11:26:33;;;;;;;0.32;0.32;;;24.70;99.90;;;;;;5011405;28;20018;-86
2023/09/14 11:28:59;;;;;;;3.30;0.68;;;24.60;99.90;;;;;;5002864;28;20038;-85
2023/09/14 11:31:32;;;;;;;0.00;0.00;;;25.10;99.90;;;;;;5010568;28;20045;-86
2023/09/14 11:34:04;;;;;;;0.00;0.00;;;26.00;99.10;;;;;;5010785;28;20079;-86
2023/09/14 11:36:31;;;;;;;0.00;0.00;;;26.20;98.00;;;;;;5010992;28;20447;-86
2023/09/14 11:38:57;;;;;;;0.20;0.20;;;26.50;94.20;;;;;;5011008;28;20026;-85
2023/09/14 11:41:55;;;;;;;0.00;0.00;;;26.00;95.40;;;;;;5010987;28;20021;-86
2023/09/14 11:44:23;;;;;;;0.00;0.00;;;26.50;93.10;;;;;;5003121;28;20030;-89
2023/09/14 11:46:50;;;;;;;0.00;0.00;;;26.30;92.90;;;;;;5010531;28;20466;-84
2023/09/14 11:49:19;;;;;;;0.00;0.00;;;26.00;93.60;;;;;;5011032;28;20367;-88
2023/09/14 11:51:45;;;;;;;0.00;0.00;;;25.40;95.20;;;;;;5003694;28;20083;-89
2023/09/14 11:54:11;;;;;;;0.00;0.00;;;26.10;95.40;;;;;;5010686;28;20426;-88
2023/09/14 11:56:37;;;;;;;0.10;0.10;;;27.10;92.90;;;;;;4992244;28;20463;-73
2023/09/14 11:59:03;;;;;;;0.10;0.10;;;27.50;93.30;;;;;;5010157;28;20057;-74
2023/09/14 12:01:35;;;;;;;0.10;0.10;;;28.00;91.50;;;;;;5010206;28;20045;-73
2023/09/14 12:04:03;;;;;;;0.00;0.00;;;28.90;92.10;;;;;;5010522;28;20022;-73
2023/09/14 12:06:30;;;;;;;0.00;0.00;;;30.10;90.40;;;;;;5010461;28;20037;-83
2023/09/14 12:08:57;;;;;;;0.00;0.00;;;30.70;87.20;;;;;;5010414;28;20033;-71
2023/09/14 12:11:22;;;;;;;0.00;0.00;;;29.30;88.80;;;;;;5010288;28;20052;-75
2023/09/14 12:13:55;;;;;;;0.00;0.00;;;29.20;89.90;;;;;;5010269;28;20018;-71
2023/09/14 12:16:23;;;;;;;0.00;0.00;;;28.80;82.20;;;;;;5010012;28;20126;-71
2023/09/14 12:18:51;;;;;;;0.00;0.00;;;28.60;83.90;;;;;;5010349;28;20026;-70
2023/09/14 12:21:19;;;;;;;0.10;0.10;;;28.80;81.70;;;;;;5009115;28;20037;-70
2023/09/14 12:23:47;;;;;;;0.00;0.00;;;28.50;83.20;;;;;;5010432;28;20079;-70
2023/09/14 12:26:15;;;;;;;0.00;0.00;;;28.20;82.00;;;;;;5010019;28;20026;-85
2023/09/14 12:28:54;;;;;;;6.32;1.45;;;28.90;82.70;;;;;;5010407;28;20057;-74
2023/09/14 12:31:21;;;;;;;0.13;0.13;;;29.20;80.50;;;;;;5010363;28;20531;-86
2023/09/14 12:33:48;;;;;;;0.50;0.45;;;29.80;80.20;;;;;;5010395;28;20042;-73
2023/09/14 12:36:16;;;;;;;0.00;0.00;;;28.90;78.40;;;;;;5010027;28;20030;-73
2023/09/14 12:38:42;;;;;;;0.15;0.15;;;28.60;81.80;;;;;;5010191;28;20030;-71
2023/09/14 12:41:08;;;;;;;0.10;0.10;;;29.40;80.90;;;;;;5009472;28;20079;-75
2023/09/14 12:43:34;;;;;;;0.00;0.00;;;28.20;78.50;;;;;;5005075;28;20075;-71
2023/09/14 12:46:01;;;;;;;0.00;0.00;;;28.40;80.90;;;;;;5010271;28;20030;-70
2023/09/14 12:48:28;;;;;;;0.00;0.00;;;30.30;79.70;;;;;;5009707;28;20183;-71
2023/09/14 12:50:56;;;;;;;0.00;0.00;;;31.30;78.00;;;;;;5010092;28;20034;-71